sensor_id;sensor_type;location;lat;lon;timestamp;P1;durP1;ratioP1;P2;durP2;ratioP2
79670;SDS011;69137;50.878;8.050;2024-02-16T00:00:00;4.22;;;2.45;;
79670;SDS011;69137;50.878;8.050;2024-02-16T00:02:26;6.72;;;2.47;;
79670;SDS011;69137;50.878;8.050;2024-02-16T00:04:51;6.20;;;2.10;;
79670;SDS011;69137;50.878;8.050;2024-02-16T00:07:17;3.70;;;2.13;;
79670;SDS011;69137;50.878;8.050;2024-02-16T00:09:42;8.57;;;2.47;;
79670;SDS011;69137;50.878;8.050;2024-02-16T00:12:07;3.83;;;2.33;;
79670;SDS011;69137;50.878;8.050;2024-02-16T00:14:32;5.00;;;2.10;;
79670;SDS011;69137;50.878;8.050;2024-02-16T00:16:58;4.03;;;2.15;;
79670;SDS011;69137;50.878;8.050;2024-02-16T00:19:24;3.38;;;2.00;;
79670;SDS011;69137;50.878;8.050;2024-02-16T00:21:50;3.33;;;2.05;;
79670;SDS011;69137;50.878;8.050;2024-02-16T00:24:16;6.82;;;2.30;;
79670;SDS011;69137;50.878;8.050;2024-02-16T00:26:41;4.23;;;2.17;;
79670;SDS011;69137;50.878;8.050;2024-02-16T00:29:08;4.95;;;2.20;;
79670;SDS011;69137;50.878;8.050;2024-02-16T00:31:33;5.90;;;2.30;;
79670;SDS011;69137;50.878;8.050;2024-02-16T00:33:59;7.28;;;2.38;;
79670;SDS011;69137;50.878;8.050;2024-02-16T00:36:25;4.38;;;1.85;;
79670;SDS011;69137;50.878;8.050;2024-02-16T00:38:51;3.38;;;1.60;;
79670;SDS011;69137;50.878;8.050;2024-02-16T00:41:18;3.67;;;1.90;;
79670;SDS011;69137;50.878;8.050;2024-02-16T00:43:47;6.55;;;2.20;;
79670;SDS011;69137;50.878;8.050;2024-02-16T00:46:12;3.70;;;2.35;;
79670;SDS011;69137;50.878;8.050;2024-02-16T00:48:37;4.17;;;2.10;;
79670;SDS011;69137;50.878;8.050;2024-02-16T00:51:03;4.30;;;2.70;;
79670;SDS011;69137;50.878;8.050;2024-02-16T00:53:28;5.97;;;2.95;;
79670;SDS011;69137;50.878;8.050;2024-02-16T00:55:53;4.40;;;2.37;;
79670;SDS011;69137;50.878;8.050;2024-02-16T00:58:19;5.00;;;2.50;;
79670;SDS011;69137;50.878;8.050;2024-02-16T01:00:44;7.35;;;2.53;;
79670;SDS011;69137;50.878;8.050;2024-02-16T01:03:10;4.78;;;2.30;;
79670;SDS011;69137;50.878;8.050;2024-02-16T01:05:35;6.90;;;2.20;;
79670;SDS011;69137;50.878;8.050;2024-02-16T01:08:00;6.50;;;1.80;;
79670;SDS011;69137;50.878;8.050;2024-02-16T01:10:26;4.10;;;2.13;;
79670;SDS011;69137;50.878;8.050;2024-02-16T01:12:51;5.53;;;2.33;;
79670;SDS011;69137;50.878;8.050;2024-02-16T01:15:17;5.13;;;2.25;;
79670;SDS011;69137;50.878;8.050;2024-02-16T01:17:43;3.50;;;2.00;;
79670;SDS011;69137;50.878;8.050;2024-02-16T01:20:08;3.43;;;2.20;;
79670;SDS011;69137;50.878;8.050;2024-02-16T01:22:37;8.73;;;2.35;;
79670;SDS011;69137;50.878;8.050;2024-02-16T01:25:03;5.82;;;2.40;;
79670;SDS011;69137;50.878;8.050;2024-02-16T01:27:29;6.85;;;2.45;;
79670;SDS011;69137;50.878;8.050;2024-02-16T01:29:54;6.30;;;2.50;;
79670;SDS011;69137;50.878;8.050;2024-02-16T01:32:19;10.47;;;3.43;;
79670;SDS011;69137;50.878;8.050;2024-02-16T01:34:44;4.07;;;2.03;;
79670;SDS011;69137;50.878;8.050;2024-02-16T01:37:12;8.80;;;2.63;;
79670;SDS011;69137;50.878;8.050;2024-02-16T01:39:37;3.05;;;2.13;;
79670;SDS011;69137;50.878;8.050;2024-02-16T01:42:03;4.70;;;1.90;;
79670;SDS011;69137;50.878;8.050;2024-02-16T01:44:28;4.57;;;2.10;;
79670;SDS011;69137;50.878;8.050;2024-02-16T01:46:53;6.83;;;3.23;;
79670;SDS011;69137;50.878;8.050;2024-02-16T01:49:18;5.73;;;2.30;;
79670;SDS011;69137;50.878;8.050;2024-02-16T01:51:44;9.73;;;4.15;;
79670;SDS011;69137;50.878;8.050;2024-02-16T01:54:11;4.72;;;1.92;;
79670;SDS011;69137;50.878;8.050;2024-02-16T01:56:37;4.53;;;1.95;;
79670;SDS011;69137;50.878;8.050;2024-02-16T01:59:02;4.57;;;1.98;;
79670;SDS011;69137;50.878;8.050;2024-02-16T02:01:27;8.17;;;1.90;;
79670;SDS011;69137;50.878;8.050;2024-02-16T02:03:52;6.60;;;2.67;;
79670;SDS011;69137;50.878;8.050;2024-02-16T02:06:18;5.63;;;2.00;;
79670;SDS011;69137;50.878;8.050;2024-02-16T02:08:43;5.63;;;1.80;;
79670;SDS011;69137;50.878;8.050;2024-02-16T02:11:08;3.80;;;1.87;;
79670;SDS011;69137;50.878;8.050;2024-02-16T02:13:34;3.93;;;2.23;;
79670;SDS011;69137;50.878;8.050;2024-02-16T02:15:59;3.20;;;1.90;;
79670;SDS011;69137;50.878;8.050;2024-02-16T02:18:25;6.32;;;2.75;;
79670;SDS011;69137;50.878;8.050;2024-02-16T02:20:51;4.87;;;1.80;;
79670;SDS011;69137;50.878;8.050;2024-02-16T02:23:16;5.47;;;2.03;;
79670;SDS011;69137;50.878;8.050;2024-02-16T02:25:41;4.47;;;1.90;;
79670;SDS011;69137;50.878;8.050;2024-02-16T02:28:07;6.87;;;1.90;;
79670;SDS011;69137;50.878;8.050;2024-02-16T02:30:33;5.32;;;1.70;;
79670;SDS011;69137;50.878;8.050;2024-02-16T02:32:58;2.95;;;1.98;;
79670;SDS011;69137;50.878;8.050;2024-02-16T02:35:23;5.07;;;2.50;;
79670;SDS011;69137;50.878;8.050;2024-02-16T02:37:49;6.83;;;2.30;;
79670;SDS011;69137;50.878;8.050;2024-02-16T02:40:14;3.83;;;2.20;;
79670;SDS011;69137;50.878;8.050;2024-02-16T02:42:39;4.43;;;1.88;;
79670;SDS011;69137;50.878;8.050;2024-02-16T02:45:05;5.53;;;2.37;;
79670;SDS011;69137;50.878;8.050;2024-02-16T02:47:30;4.65;;;2.38;;
79670;SDS011;69137;50.878;8.050;2024-02-16T02:49:56;6.00;;;2.20;;
79670;SDS011;69137;50.878;8.050;2024-02-16T02:52:21;7.83;;;2.20;;
79670;SDS011;69137;50.878;8.050;2024-02-16T02:54:46;6.10;;;2.47;;
79670;SDS011;69137;50.878;8.050;2024-02-16T02:57:12;4.57;;;1.83;;
79670;SDS011;69137;50.878;8.050;2024-02-16T02:59:38;5.15;;;1.88;;
79670;SDS011;69137;50.878;8.050;2024-02-16T03:02:03;5.28;;;2.25;;
79670;SDS011;69137;50.878;8.050;2024-02-16T03:04:29;5.65;;;2.25;;
79670;SDS011;69137;50.878;8.050;2024-02-16T03:06:54;5.00;;;2.17;;
79670;SDS011;69137;50.878;8.050;2024-02-16T03:09:19;10.23;;;2.53;;
79670;SDS011;69137;50.878;8.050;2024-02-16T03:11:45;5.07;;;1.90;;
79670;SDS011;69137;50.878;8.050;2024-02-16T03:14:10;5.57;;;2.23;;
79670;SDS011;69137;50.878;8.050;2024-02-16T03:16:35;5.47;;;1.90;;
79670;SDS011;69137;50.878;8.050;2024-02-16T03:19:01;4.18;;;2.20;;
79670;SDS011;69137;50.878;8.050;2024-02-16T03:21:26;6.03;;;2.83;;
79670;SDS011;69137;50.878;8.050;2024-02-16T03:23:52;8.13;;;2.30;;
79670;SDS011;69137;50.878;8.050;2024-02-16T03:26:18;4.60;;;2.37;;
79670;SDS011;69137;50.878;8.050;2024-02-16T03:28:45;6.22;;;2.40;;
79670;SDS011;69137;50.878;8.050;2024-02-16T03:31:16;4.00;;;1.90;;
79670;SDS011;69137;50.878;8.050;2024-02-16T03:33:42;7.35;;;2.22;;
79670;SDS011;69137;50.878;8.050;2024-02-16T03:36:08;6.27;;;1.77;;
79670;SDS011;69137;50.878;8.050;2024-02-16T03:38:34;3.90;;;1.98;;
79670;SDS011;69137;50.878;8.050;2024-02-16T03:41:00;7.47;;;2.07;;
79670;SDS011;69137;50.878;8.050;2024-02-16T03:43:25;4.60;;;2.30;;
79670;SDS011;69137;50.878;8.050;2024-02-16T03:45:51;7.03;;;2.55;;
79670;SDS011;69137;50.878;8.050;2024-02-16T03:48:16;5.53;;;2.27;;
79670;SDS011;69137;50.878;8.050;2024-02-16T03:50:41;3.53;;;1.90;;
79670;SDS011;69137;50.878;8.050;2024-02-16T03:53:07;6.30;;;2.63;;
79670;SDS011;69137;50.878;8.050;2024-02-16T03:55:32;5.03;;;2.00;;
79670;SDS011;69137;50.878;8.050;2024-02-16T03:58:01;2.85;;;1.77;;
79670;SDS011;69137;50.878;8.050;2024-02-16T04:00:27;14.57;;;3.38;;
79670;SDS011;69137;50.878;8.050;2024-02-16T04:02:53;4.60;;;2.03;;
79670;SDS011;69137;50.878;8.050;2024-02-16T04:05:18;4.67;;;2.30;;
79670;SDS011;69137;50.878;8.050;2024-02-16T04:07:43;3.73;;;2.20;;
79670;SDS011;69137;50.878;8.050;2024-02-16T04:10:09;4.70;;;2.50;;
79670;SDS011;69137;50.878;8.050;2024-02-16T04:12:34;4.25;;;2.28;;
79670;SDS011;69137;50.878;8.050;2024-02-16T04:14:59;3.13;;;2.17;;
79670;SDS011;69137;50.878;8.050;2024-02-16T04:17:25;8.27;;;3.78;;
79670;SDS011;69137;50.878;8.050;2024-02-16T04:19:50;5.83;;;2.50;;
79670;SDS011;69137;50.878;8.050;2024-02-16T04:22:15;5.37;;;2.63;;
79670;SDS011;69137;50.878;8.050;2024-02-16T04:24:41;5.13;;;2.60;;
79670;SDS011;69137;50.878;8.050;2024-02-16T04:27:06;6.57;;;2.73;;
79670;SDS011;69137;50.878;8.050;2024-02-16T04:29:32;5.72;;;2.28;;
79670;SDS011;69137;50.878;8.050;2024-02-16T04:31:57;6.27;;;2.20;;
79670;SDS011;69137;50.878;8.050;2024-02-16T04:34:22;6.00;;;2.33;;
79670;SDS011;69137;50.878;8.050;2024-02-16T04:36:47;11.47;;;2.97;;
79670;SDS011;69137;50.878;8.050;2024-02-16T04:39:13;3.40;;;1.90;;
79670;SDS011;69137;50.878;8.050;2024-02-16T04:41:39;5.05;;;2.15;;
79670;SDS011;69137;50.878;8.050;2024-02-16T04:44:05;3.92;;;2.30;;
79670;SDS011;69137;50.878;8.050;2024-02-16T04:46:30;4.23;;;1.90;;
79670;SDS011;69137;50.878;8.050;2024-02-16T04:48:56;4.67;;;2.70;;
79670;SDS011;69137;50.878;8.050;2024-02-16T04:51:21;6.43;;;2.17;;
79670;SDS011;69137;50.878;8.050;2024-02-16T04:53:47;4.23;;;2.10;;
79670;SDS011;69137;50.878;8.050;2024-02-16T04:56:13;5.43;;;2.35;;
79670;SDS011;69137;50.878;8.050;2024-02-16T04:58:41;4.13;;;1.85;;
79670;SDS011;69137;50.878;8.050;2024-02-16T05:01:07;6.13;;;2.80;;
79670;SDS011;69137;50.878;8.050;2024-02-16T05:03:33;6.40;;;3.30;;
79670;SDS011;69137;50.878;8.050;2024-02-16T05:05:59;4.93;;;2.42;;
79670;SDS011;69137;50.878;8.050;2024-02-16T05:08:25;4.95;;;2.47;;
79670;SDS011;69137;50.878;8.050;2024-02-16T05:10:50;8.63;;;3.63;;
79670;SDS011;69137;50.878;8.050;2024-02-16T05:13:16;5.72;;;3.38;;
79670;SDS011;69137;50.878;8.050;2024-02-16T05:15:41;6.13;;;3.37;;
79670;SDS011;69137;50.878;8.050;2024-02-16T05:18:06;4.38;;;2.60;;
79670;SDS011;69137;50.878;8.050;2024-02-16T05:20:32;8.82;;;3.05;;
79670;SDS011;69137;50.878;8.050;2024-02-16T05:22:57;6.70;;;2.97;;
79670;SDS011;69137;50.878;8.050;2024-02-16T05:25:22;4.27;;;2.33;;
79670;SDS011;69137;50.878;8.050;2024-02-16T05:27:48;6.13;;;3.00;;
79670;SDS011;69137;50.878;8.050;2024-02-16T05:30:13;5.60;;;2.70;;
79670;SDS011;69137;50.878;8.050;2024-02-16T05:32:40;5.43;;;2.80;;
79670;SDS011;69137;50.878;8.050;2024-02-16T05:35:06;5.75;;;3.13;;
79670;SDS011;69137;50.878;8.050;2024-02-16T05:37:46;4.80;;;2.95;;
79670;SDS011;69137;50.878;8.050;2024-02-16T05:40:14;4.82;;;2.30;;
79670;SDS011;69137;50.878;8.050;2024-02-16T05:42:54;5.10;;;3.05;;
79670;SDS011;69137;50.878;8.050;2024-02-16T05:45:23;4.90;;;2.65;;
79670;SDS011;69137;50.878;8.050;2024-02-16T05:47:48;4.80;;;2.50;;
79670;SDS011;69137;50.878;8.050;2024-02-16T05:50:14;5.80;;;2.58;;
79670;SDS011;69137;50.878;8.050;2024-02-16T05:52:41;2.88;;;1.90;;
79670;SDS011;69137;50.878;8.050;2024-02-16T05:55:07;7.72;;;3.30;;
79670;SDS011;69137;50.878;8.050;2024-02-16T05:57:33;5.35;;;2.80;;
79670;SDS011;69137;50.878;8.050;2024-02-16T05:59:59;8.13;;;2.78;;
79670;SDS011;69137;50.878;8.050;2024-02-16T06:02:25;6.55;;;2.85;;
79670;SDS011;69137;50.878;8.050;2024-02-16T06:04:51;7.53;;;3.17;;
79670;SDS011;69137;50.878;8.050;2024-02-16T06:07:16;6.53;;;3.42;;
79670;SDS011;69137;50.878;8.050;2024-02-16T06:09:42;5.87;;;3.60;;
79670;SDS011;69137;50.878;8.050;2024-02-16T06:12:07;8.83;;;3.87;;
79670;SDS011;69137;50.878;8.050;2024-02-16T06:14:34;7.80;;;4.20;;
79670;SDS011;69137;50.878;8.050;2024-02-16T06:16:59;9.18;;;3.63;;
79670;SDS011;69137;50.878;8.050;2024-02-16T06:19:25;5.00;;;3.27;;
79670;SDS011;69137;50.878;8.050;2024-02-16T06:21:52;6.68;;;3.58;;
79670;SDS011;69137;50.878;8.050;2024-02-16T06:24:19;5.45;;;3.25;;
79670;SDS011;69137;50.878;8.050;2024-02-16T06:26:45;5.90;;;3.30;;
79670;SDS011;69137;50.878;8.050;2024-02-16T06:29:10;6.97;;;3.80;;
79670;SDS011;69137;50.878;8.050;2024-02-16T06:31:35;9.43;;;2.77;;
79670;SDS011;69137;50.878;8.050;2024-02-16T06:34:01;7.47;;;3.30;;
79670;SDS011;69137;50.878;8.050;2024-02-16T06:36:26;5.07;;;2.77;;
79670;SDS011;69137;50.878;8.050;2024-02-16T06:38:51;3.97;;;2.42;;
79670;SDS011;69137;50.878;8.050;2024-02-16T06:41:17;5.27;;;2.60;;
79670;SDS011;69137;50.878;8.050;2024-02-16T06:43:42;6.57;;;3.00;;
79670;SDS011;69137;50.878;8.050;2024-02-16T06:46:08;6.57;;;3.03;;
79670;SDS011;69137;50.878;8.050;2024-02-16T06:48:33;7.80;;;3.50;;
79670;SDS011;69137;50.878;8.050;2024-02-16T06:50:58;12.27;;;3.87;;
79670;SDS011;69137;50.878;8.050;2024-02-16T06:53:24;5.93;;;3.30;;
79670;SDS011;69137;50.878;8.050;2024-02-16T06:55:49;7.23;;;3.83;;
79670;SDS011;69137;50.878;8.050;2024-02-16T06:58:15;9.23;;;3.47;;
79670;SDS011;69137;50.878;8.050;2024-02-16T07:00:40;7.97;;;3.83;;
79670;SDS011;69137;50.878;8.050;2024-02-16T07:03:07;6.88;;;3.20;;
79670;SDS011;69137;50.878;8.050;2024-02-16T07:05:32;4.30;;;2.80;;
79670;SDS011;69137;50.878;8.050;2024-02-16T07:07:58;10.25;;;4.53;;
79670;SDS011;69137;50.878;8.050;2024-02-16T07:10:23;6.13;;;3.10;;
79670;SDS011;69137;50.878;8.050;2024-02-16T07:12:49;4.05;;;3.13;;
79670;SDS011;69137;50.878;8.050;2024-02-16T07:15:14;5.43;;;3.57;;
79670;SDS011;69137;50.878;8.050;2024-02-16T07:17:40;6.35;;;3.78;;
79670;SDS011;69137;50.878;8.050;2024-02-16T07:20:05;7.10;;;3.77;;
79670;SDS011;69137;50.878;8.050;2024-02-16T07:22:31;5.50;;;3.63;;
79670;SDS011;69137;50.878;8.050;2024-02-16T07:24:57;5.50;;;3.17;;
79670;SDS011;69137;50.878;8.050;2024-02-16T07:27:25;7.20;;;3.50;;
79670;SDS011;69137;50.878;8.050;2024-02-16T07:29:50;7.30;;;3.85;;
79670;SDS011;69137;50.878;8.050;2024-02-16T07:32:15;8.03;;;3.97;;
79670;SDS011;69137;50.878;8.050;2024-02-16T07:34:45;8.57;;;3.22;;
79670;SDS011;69137;50.878;8.050;2024-02-16T07:37:10;9.98;;;3.40;;
79670;SDS011;69137;50.878;8.050;2024-02-16T07:39:36;9.67;;;4.07;;
79670;SDS011;69137;50.878;8.050;2024-02-16T07:42:01;11.97;;;3.53;;
79670;SDS011;69137;50.878;8.050;2024-02-16T07:44:27;7.50;;;3.57;;
79670;SDS011;69137;50.878;8.050;2024-02-16T07:46:53;8.88;;;3.85;;
79670;SDS011;69137;50.878;8.050;2024-02-16T07:49:18;7.83;;;3.90;;
79670;SDS011;69137;50.878;8.050;2024-02-16T07:51:44;7.75;;;4.63;;
79670;SDS011;69137;50.878;8.050;2024-02-16T07:54:09;8.88;;;4.60;;
79670;SDS011;69137;50.878;8.050;2024-02-16T07:56:34;9.00;;;4.13;;
79670;SDS011;69137;50.878;8.050;2024-02-16T07:59:00;7.27;;;3.90;;
79670;SDS011;69137;50.878;8.050;2024-02-16T08:01:25;10.27;;;3.40;;
79670;SDS011;69137;50.878;8.050;2024-02-16T08:03:50;6.75;;;3.90;;
79670;SDS011;69137;50.878;8.050;2024-02-16T08:06:16;7.05;;;3.65;;
79670;SDS011;69137;50.878;8.050;2024-02-16T08:08:46;10.38;;;4.13;;
79670;SDS011;69137;50.878;8.050;2024-02-16T08:11:12;8.75;;;4.95;;
79670;SDS011;69137;50.878;8.050;2024-02-16T08:13:37;7.30;;;3.23;;
79670;SDS011;69137;50.878;8.050;2024-02-16T08:16:02;6.57;;;3.53;;
79670;SDS011;69137;50.878;8.050;2024-02-16T08:18:31;10.02;;;3.75;;
79670;SDS011;69137;50.878;8.050;2024-02-16T08:20:57;9.73;;;3.85;;
79670;SDS011;69137;50.878;8.050;2024-02-16T08:23:22;6.57;;;2.87;;
79670;SDS011;69137;50.878;8.050;2024-02-16T08:25:48;5.23;;;2.67;;
79670;SDS011;69137;50.878;8.050;2024-02-16T08:28:13;5.60;;;3.03;;
79670;SDS011;69137;50.878;8.050;2024-02-16T08:30:39;7.95;;;3.35;;
79670;SDS011;69137;50.878;8.050;2024-02-16T08:33:06;8.45;;;3.00;;
79670;SDS011;69137;50.878;8.050;2024-02-16T08:35:32;6.75;;;2.83;;
79670;SDS011;69137;50.878;8.050;2024-02-16T08:37:57;5.63;;;2.83;;
79670;SDS011;69137;50.878;8.050;2024-02-16T08:40:22;10.93;;;3.23;;
79670;SDS011;69137;50.878;8.050;2024-02-16T08:42:48;6.60;;;3.50;;
79670;SDS011;69137;50.878;8.050;2024-02-16T08:45:14;5.13;;;3.40;;
79670;SDS011;69137;50.878;8.050;2024-02-16T08:47:42;6.45;;;3.28;;
79670;SDS011;69137;50.878;8.050;2024-02-16T08:50:08;9.32;;;4.60;;
79670;SDS011;69137;50.878;8.050;2024-02-16T08:52:34;9.38;;;3.92;;
79670;SDS011;69137;50.878;8.050;2024-02-16T08:54:59;6.80;;;2.87;;
79670;SDS011;69137;50.878;8.050;2024-02-16T08:57:24;9.60;;;4.53;;
79670;SDS011;69137;50.878;8.050;2024-02-16T08:59:49;8.07;;;3.80;;
79670;SDS011;69137;50.878;8.050;2024-02-16T09:02:15;10.23;;;3.73;;
79670;SDS011;69137;50.878;8.050;2024-02-16T09:04:40;10.43;;;3.80;;
79670;SDS011;69137;50.878;8.050;2024-02-16T09:07:05;12.63;;;4.53;;
79670;SDS011;69137;50.878;8.050;2024-02-16T09:09:31;8.80;;;4.88;;
79670;SDS011;69137;50.878;8.050;2024-02-16T09:11:56;8.27;;;4.43;;
79670;SDS011;69137;50.878;8.050;2024-02-16T09:14:22;8.55;;;3.60;;
79670;SDS011;69137;50.878;8.050;2024-02-16T09:16:50;6.05;;;2.95;;
79670;SDS011;69137;50.878;8.050;2024-02-16T09:19:19;9.07;;;3.20;;
79670;SDS011;69137;50.878;8.050;2024-02-16T09:21:44;7.00;;;3.05;;
79670;SDS011;69137;50.878;8.050;2024-02-16T09:24:10;7.55;;;3.13;;
79670;SDS011;69137;50.878;8.050;2024-02-16T09:26:39;4.43;;;2.03;;
79670;SDS011;69137;50.878;8.050;2024-02-16T09:29:04;6.27;;;2.50;;
79670;SDS011;69137;50.878;8.050;2024-02-16T09:31:31;6.55;;;2.75;;
79670;SDS011;69137;50.878;8.050;2024-02-16T09:33:56;6.18;;;2.75;;
79670;SDS011;69137;50.878;8.050;2024-02-16T09:36:22;8.87;;;2.83;;
79670;SDS011;69137;50.878;8.050;2024-02-16T09:38:48;4.13;;;2.22;;
79670;SDS011;69137;50.878;8.050;2024-02-16T09:41:13;5.05;;;1.70;;
79670;SDS011;69137;50.878;8.050;2024-02-16T09:43:40;6.18;;;2.40;;
79670;SDS011;69137;50.878;8.050;2024-02-16T09:46:06;5.90;;;2.55;;
79670;SDS011;69137;50.878;8.050;2024-02-16T09:48:33;5.03;;;2.55;;
79670;SDS011;69137;50.878;8.050;2024-02-16T09:50:59;3.58;;;2.10;;
79670;SDS011;69137;50.878;8.050;2024-02-16T09:53:25;4.40;;;2.35;;
79670;SDS011;69137;50.878;8.050;2024-02-16T09:55:52;4.90;;;2.30;;
79670;SDS011;69137;50.878;8.050;2024-02-16T09:58:18;7.78;;;2.80;;
79670;SDS011;69137;50.878;8.050;2024-02-16T10:00:50;4.40;;;2.20;;
79670;SDS011;69137;50.878;8.050;2024-02-16T10:03:30;4.97;;;2.55;;
79670;SDS011;69137;50.878;8.050;2024-02-16T10:06:09;5.50;;;2.22;;
79670;SDS011;69137;50.878;8.050;2024-02-16T10:11:18;3.83;;;2.15;;
79670;SDS011;69137;50.878;8.050;2024-02-16T10:13:53;7.97;;;2.45;;
79670;SDS011;69137;50.878;8.050;2024-02-16T10:16:22;6.68;;;2.45;;
79670;SDS011;69137;50.878;8.050;2024-02-16T10:18:48;4.75;;;2.40;;
79670;SDS011;69137;50.878;8.050;2024-02-16T10:21:13;4.87;;;2.00;;
79670;SDS011;69137;50.878;8.050;2024-02-16T10:23:38;5.83;;;2.03;;
79670;SDS011;69137;50.878;8.050;2024-02-16T10:26:03;6.40;;;2.30;;
79670;SDS011;69137;50.878;8.050;2024-02-16T10:28:29;4.00;;;2.07;;
79670;SDS011;69137;50.878;8.050;2024-02-16T10:30:59;5.18;;;2.33;;
79670;SDS011;69137;50.878;8.050;2024-02-16T10:33:29;6.20;;;2.42;;
79670;SDS011;69137;50.878;8.050;2024-02-16T10:35:56;7.18;;;2.42;;
79670;SDS011;69137;50.878;8.050;2024-02-16T10:38:23;9.60;;;2.85;;
79670;SDS011;69137;50.878;8.050;2024-02-16T10:40:48;5.90;;;2.05;;
79670;SDS011;69137;50.878;8.050;2024-02-16T10:43:16;5.38;;;2.17;;
79670;SDS011;69137;50.878;8.050;2024-02-16T10:45:43;7.20;;;2.30;;
79670;SDS011;69137;50.878;8.050;2024-02-16T10:48:10;5.60;;;1.98;;
79670;SDS011;69137;50.878;8.050;2024-02-16T10:50:35;5.22;;;2.47;;
79670;SDS011;69137;50.878;8.050;2024-02-16T10:55:37;5.20;;;2.33;;
79670;SDS011;69137;50.878;8.050;2024-02-16T10:58:02;10.05;;;2.80;;
79670;SDS011;69137;50.878;8.050;2024-02-16T11:00:28;2.75;;;1.88;;
79670;SDS011;69137;50.878;8.050;2024-02-16T11:02:56;5.93;;;2.50;;
79670;SDS011;69137;50.878;8.050;2024-02-16T11:05:34;6.15;;;2.50;;
79670;SDS011;69137;50.878;8.050;2024-02-16T11:08:04;4.93;;;1.95;;
79670;SDS011;69137;50.878;8.050;2024-02-16T11:10:30;5.43;;;2.08;;
79670;SDS011;69137;50.878;8.050;2024-02-16T11:13:00;6.20;;;2.17;;
79670;SDS011;69137;50.878;8.050;2024-02-16T11:15:28;6.28;;;2.25;;
79670;SDS011;69137;50.878;8.050;2024-02-16T11:18:00;5.55;;;2.25;;
79670;SDS011;69137;50.878;8.050;2024-02-16T11:20:25;5.80;;;2.20;;
79670;SDS011;69137;50.878;8.050;2024-02-16T11:22:51;4.10;;;2.05;;
79670;SDS011;69137;50.878;8.050;2024-02-16T11:25:17;3.92;;;2.13;;
79670;SDS011;69137;50.878;8.050;2024-02-16T11:27:43;5.15;;;1.98;;
79670;SDS011;69137;50.878;8.050;2024-02-16T11:30:11;12.43;;;3.33;;
79670;SDS011;69137;50.878;8.050;2024-02-16T11:32:37;4.70;;;2.33;;
79670;SDS011;69137;50.878;8.050;2024-02-16T11:35:08;5.93;;;2.40;;
79670;SDS011;69137;50.878;8.050;2024-02-16T11:37:33;7.10;;;2.75;;
79670;SDS011;69137;50.878;8.050;2024-02-16T11:39:59;4.10;;;2.05;;
79670;SDS011;69137;50.878;8.050;2024-02-16T11:42:24;7.40;;;2.40;;
79670;SDS011;69137;50.878;8.050;2024-02-16T11:44:51;5.33;;;2.60;;
79670;SDS011;69137;50.878;8.050;2024-02-16T11:47:21;13.48;;;3.20;;
79670;SDS011;69137;50.878;8.050;2024-02-16T11:50:00;3.95;;;2.67;;
79670;SDS011;69137;50.878;8.050;2024-02-16T11:52:26;5.57;;;2.38;;
79670;SDS011;69137;50.878;8.050;2024-02-16T11:54:51;7.35;;;2.20;;
79670;SDS011;69137;50.878;8.050;2024-02-16T11:57:16;7.45;;;2.53;;
79670;SDS011;69137;50.878;8.050;2024-02-16T11:59:42;4.90;;;1.80;;
79670;SDS011;69137;50.878;8.050;2024-02-16T12:02:08;4.47;;;2.50;;
79670;SDS011;69137;50.878;8.050;2024-02-16T12:04:43;6.93;;;2.35;;
79670;SDS011;69137;50.878;8.050;2024-02-16T12:07:11;8.10;;;2.83;;
79670;SDS011;69137;50.878;8.050;2024-02-16T12:09:37;7.78;;;2.47;;
79670;SDS011;69137;50.878;8.050;2024-02-16T12:12:03;6.27;;;2.27;;
79670;SDS011;69137;50.878;8.050;2024-02-16T12:14:30;6.47;;;2.50;;
79670;SDS011;69137;50.878;8.050;2024-02-16T12:16:56;5.68;;;2.58;;
79670;SDS011;69137;50.878;8.050;2024-02-16T12:19:22;4.40;;;2.45;;
79670;SDS011;69137;50.878;8.050;2024-02-16T12:21:51;7.03;;;2.60;;
79670;SDS011;69137;50.878;8.050;2024-02-16T12:24:18;5.35;;;2.17;;
79670;SDS011;69137;50.878;8.050;2024-02-16T12:26:44;3.97;;;2.58;;
79670;SDS011;69137;50.878;8.050;2024-02-16T12:29:09;10.17;;;2.70;;
79670;SDS011;69137;50.878;8.050;2024-02-16T12:31:37;6.45;;;3.30;;
79670;SDS011;69137;50.878;8.050;2024-02-16T12:34:03;6.45;;;2.90;;
79670;SDS011;69137;50.878;8.050;2024-02-16T12:36:30;5.47;;;2.10;;
79670;SDS011;69137;50.878;8.050;2024-02-16T12:38:55;5.40;;;2.30;;
79670;SDS011;69137;50.878;8.050;2024-02-16T12:41:21;13.20;;;3.17;;
79670;SDS011;69137;50.878;8.050;2024-02-16T12:43:46;6.22;;;2.28;;
79670;SDS011;69137;50.878;8.050;2024-02-16T12:46:11;6.50;;;2.20;;
79670;SDS011;69137;50.878;8.050;2024-02-16T12:48:37;6.67;;;3.30;;
79670;SDS011;69137;50.878;8.050;2024-02-16T12:51:02;5.43;;;2.70;;
79670;SDS011;69137;50.878;8.050;2024-02-16T12:53:27;4.50;;;2.45;;
79670;SDS011;69137;50.878;8.050;2024-02-16T12:55:55;9.15;;;3.28;;
79670;SDS011;69137;50.878;8.050;2024-02-16T12:58:21;8.80;;;2.80;;
79670;SDS011;69137;50.878;8.050;2024-02-16T13:00:46;8.63;;;3.30;;
79670;SDS011;69137;50.878;8.050;2024-02-16T13:03:11;5.67;;;2.43;;
79670;SDS011;69137;50.878;8.050;2024-02-16T13:05:37;5.97;;;2.65;;
79670;SDS011;69137;50.878;8.050;2024-02-16T13:08:03;6.13;;;3.03;;
79670;SDS011;69137;50.878;8.050;2024-02-16T13:10:29;11.00;;;2.60;;
79670;SDS011;69137;50.878;8.050;2024-02-16T13:12:55;7.35;;;2.50;;
79670;SDS011;69137;50.878;8.050;2024-02-16T13:15:20;7.83;;;3.23;;
79670;SDS011;69137;50.878;8.050;2024-02-16T13:17:45;6.40;;;2.77;;
79670;SDS011;69137;50.878;8.050;2024-02-16T13:20:11;6.07;;;2.57;;
79670;SDS011;69137;50.878;8.050;2024-02-16T13:22:36;6.30;;;2.87;;
79670;SDS011;69137;50.878;8.050;2024-02-16T13:25:03;7.85;;;2.35;;
79670;SDS011;69137;50.878;8.050;2024-02-16T13:27:29;5.50;;;2.38;;
79670;SDS011;69137;50.878;8.050;2024-02-16T13:29:54;9.90;;;3.13;;
79670;SDS011;69137;50.878;8.050;2024-02-16T13:32:20;6.03;;;2.23;;
79670;SDS011;69137;50.878;8.050;2024-02-16T13:34:45;6.57;;;3.17;;
79670;SDS011;69137;50.878;8.050;2024-02-16T13:37:10;5.77;;;2.37;;
79670;SDS011;69137;50.878;8.050;2024-02-16T13:39:36;7.10;;;2.80;;
79670;SDS011;69137;50.878;8.050;2024-02-16T13:42:01;10.17;;;4.43;;
79670;SDS011;69137;50.878;8.050;2024-02-16T13:44:26;9.43;;;3.90;;
79670;SDS011;69137;50.878;8.050;2024-02-16T13:46:52;7.00;;;2.55;;
79670;SDS011;69137;50.878;8.050;2024-02-16T13:49:17;10.35;;;3.10;;
79670;SDS011;69137;50.878;8.050;2024-02-16T13:51:43;7.00;;;3.40;;
79670;SDS011;69137;50.878;8.050;2024-02-16T13:54:08;6.70;;;3.37;;
79670;SDS011;69137;50.878;8.050;2024-02-16T13:56:33;6.30;;;2.87;;
79670;SDS011;69137;50.878;8.050;2024-02-16T13:59:00;10.82;;;3.25;;
79670;SDS011;69137;50.878;8.050;2024-02-16T14:01:26;4.63;;;2.60;;
79670;SDS011;69137;50.878;8.050;2024-02-16T14:03:52;9.10;;;3.10;;
79670;SDS011;69137;50.878;8.050;2024-02-16T14:06:18;6.90;;;2.90;;
79670;SDS011;69137;50.878;8.050;2024-02-16T14:08:43;9.47;;;3.00;;
79670;SDS011;69137;50.878;8.050;2024-02-16T14:11:08;6.68;;;2.70;;
79670;SDS011;69137;50.878;8.050;2024-02-16T14:13:34;6.57;;;3.00;;
79670;SDS011;69137;50.878;8.050;2024-02-16T14:16:00;8.63;;;3.30;;
79670;SDS011;69137;50.878;8.050;2024-02-16T14:18:25;5.38;;;3.03;;
79670;SDS011;69137;50.878;8.050;2024-02-16T14:20:51;5.33;;;2.70;;
79670;SDS011;69137;50.878;8.050;2024-02-16T14:23:16;5.27;;;3.30;;
79670;SDS011;69137;50.878;8.050;2024-02-16T14:25:41;6.75;;;3.70;;
79670;SDS011;69137;50.878;8.050;2024-02-16T14:28:07;10.50;;;4.33;;
79670;SDS011;69137;50.878;8.050;2024-02-16T14:30:33;8.98;;;3.55;;
79670;SDS011;69137;50.878;8.050;2024-02-16T14:32:58;8.68;;;3.88;;
79670;SDS011;69137;50.878;8.050;2024-02-16T14:35:23;10.07;;;4.63;;
79670;SDS011;69137;50.878;8.050;2024-02-16T14:37:49;13.37;;;4.63;;
79670;SDS011;69137;50.878;8.050;2024-02-16T14:40:14;10.10;;;3.85;;
79670;SDS011;69137;50.878;8.050;2024-02-16T14:42:40;6.28;;;3.75;;